Time;durP1;ratioP1;P1;durP2;ratioP2;P2;SDS_P1;SDS_P2;PMS_P1;PMS_P2;Temp;Humidity;BMP_temperature;BMP_pressure;BME280_temperature;BME280_humidity;BME280_pressure;Samples;Min_cycle;Max_cycle;Signal;HPM_P1;HPM_P2
2022/09/01 00:01:02;;;;;;;12.98;8.80;;;14.10;99.90;;;;;;5072183;28;20031;-51
2022/09/01 00:03:28;;;;;;;9.00;8.07;;;14.10;99.90;;;;;;5082753;28;20016;-53
2022/09/01 00:05:55;;;;;;;9.85;8.80;;;14.10;99.90;;;;;;5091603;28;20024;-50
2022/09/01 00:08:22;;;;;;;10.05;8.43;;;14.10;99.90;;;;;;5091155;28;20036;-54
2022/09/01 00:10:49;;;;;;;9.98;8.90;;;14.10;99.90;;;;;;5091602;28;20078;-52
2022/09/01 00:13:16;;;;;;;10.07;9.00;;;14.10;99.90;;;;;;5091464;28;20028;-51
2022/09/01 00:15:42;;;;;;;9.95;8.70;;;14.10;99.90;;;;;;5091539;28;20025;-51
2022/09/01 00:18:08;;;;;;;11.85;10.27;;;14.00;99.90;;;;;;5091245;28;20032;-50
2022/09/01 00:20:33;;;;;;;11.55;9.73;;;14.10;99.90;;;;;;5091537;28;20043;-50
2022/09/01 00:22:59;;;;;;;13.15;9.73;;;14.00;99.90;;;;;;5091280;28;20031;-51
2022/09/01 00:25:26;;;;;;;11.38;9.75;;;14.00;99.90;;;;;;5091450;28;20016;-54
2022/09/01 00:27:53;;;;;;;13.65;10.50;;;14.00;99.90;;;;;;5091449;28;20080;-52
2022/09/01 00:30:19;;;;;;;15.93;11.45;;;14.00;99.90;;;;;;5088346;28;20032;-53
2022/09/01 00:32:45;;;;;;;13.32;11.93;;;13.90;99.90;;;;;;5074265;28;20352;-52
2022/09/01 00:35:14;;;;;;;12.82;11.50;;;13.90;99.90;;;;;;5075245;28;20429;-50
2022/09/01 00:37:39;;;;;;;13.98;12.48;;;14.00;99.90;;;;;;5074951;28;20028;-51
2022/09/01 00:40:06;;;;;;;21.23;14.70;;;14.00;99.90;;;;;;5074972;28;20026;-51
2022/09/01 00:42:32;;;;;;;18.90;14.38;;;13.90;99.90;;;;;;5073617;28;20061;-52
2022/09/01 00:44:58;;;;;;;16.02;13.63;;;13.90;99.90;;;;;;5075307;28;20468;-50
2022/09/01 00:47:29;;;;;;;18.95;14.88;;;13.90;99.90;;;;;;5074651;28;20027;-52
2022/09/01 00:49:55;;;;;;;16.75;13.85;;;13.90;99.90;;;;;;5074906;28;20422;-52
2022/09/01 00:52:34;;;;;;;19.15;14.63;;;13.90;99.90;;;;;;5074788;28;20025;-52
2022/09/01 00:55:27;;;;;;;23.42;16.02;;;13.90;99.90;;;;;;5074777;28;20021;-52
2022/09/01 00:57:54;;;;;;;18.50;15.98;;;13.90;99.90;;;;;;5074578;28;20055;-54
2022/09/01 01:00:24;;;;;;;19.00;14.23;;;13.80;99.90;;;;;;5081448;28;20028;-53
2022/09/01 01:02:54;;;;;;;17.23;14.95;;;13.70;99.90;;;;;;5095063;28;20028;-52
2022/09/01 01:05:26;;;;;;;18.25;16.08;;;13.70;99.90;;;;;;5094680;28;20085;-51
2022/09/01 01:07:54;;;;;;;25.80;16.00;;;13.70;99.90;;;;;;5094663;28;20048;-50
2022/09/01 01:10:21;;;;;;;26.48;18.70;;;13.60;99.90;;;;;;5094680;28;20107;-51
2022/09/01 01:12:50;;;;;;;20.77;16.75;;;13.60;99.90;;;;;;5094805;28;20032;-52
2022/09/01 01:15:17;;;;;;;20.05;17.92;;;13.50;99.90;;;;;;5085437;28;20478;-51
2022/09/01 01:17:44;;;;;;;22.63;17.15;;;13.50;99.90;;;;;;5074458;28;20570;-55
2022/09/01 01:23:20;;;;;;;22.67;18.42;;;13.40;99.90;;;;;;5074479;28;20537;-51
2022/09/01 01:25:56;;;;;;;22.40;18.02;;;13.40;99.90;;;;;;5074168;28;20107;-50
2022/09/01 01:28:30;;;;;;;21.75;18.15;;;13.40;99.90;;;;;;5082857;28;20032;-52
2022/09/01 01:31:03;;;;;;;22.80;19.45;;;13.30;99.90;;;;;;5092991;28;20028;-52
2022/09/01 01:33:43;;;;;;;24.92;18.23;;;13.30;99.90;;;;;;5094281;28;20032;-50
2022/09/01 01:36:31;;;;;;;22.23;17.92;;;13.30;99.90;;;;;;5094206;28;20085;-51
2022/09/01 01:39:00;;;;;;;22.75;18.35;;;13.20;99.90;;;;;;5092876;28;20028;-53
2022/09/01 01:41:28;;;;;;;23.42;19.63;;;13.20;99.90;;;;;;5094119;28;20055;-51
2022/09/01 01:43:57;;;;;;;25.33;20.20;;;13.20;99.90;;;;;;5093718;28;20396;-54
2022/09/01 01:46:24;;;;;;;29.70;21.38;;;13.20;99.90;;;;;;5088835;28;20541;-52
2022/09/01 01:48:51;;;;;;;32.70;20.95;;;13.20;99.90;;;;;;5094113;28;20447;-51
2022/09/01 01:51:20;;;;;;;28.83;21.85;;;13.10;99.90;;;;;;5093728;28;20028;-53
2022/09/01 01:53:51;;;;;;;27.75;21.38;;;13.20;99.90;;;;;;5093686;28;20043;-53
2022/09/01 01:56:18;;;;;;;36.67;24.58;;;13.20;99.90;;;;;;5093676;28;20356;-52
2022/09/01 01:58:44;;;;;;;29.38;23.20;;;13.20;99.90;;;;;;5093782;28;20543;-54
2022/09/01 02:01:11;;;;;;;37.15;23.40;;;13.20;99.90;;;;;;5090983;28;20028;-51
2022/09/01 02:03:38;;;;;;;29.23;22.90;;;13.10;99.90;;;;;;5073347;28;20383;-50
2022/09/01 02:06:08;;;;;;;29.77;22.65;;;13.10;99.90;;;;;;5073577;28;20025;-51
2022/09/01 02:08:36;;;;;;;33.58;23.65;;;13.10;99.90;;;;;;5081335;28;20121;-55
2022/09/01 02:11:04;;;;;;;33.20;24.90;;;13.10;99.90;;;;;;5093684;28;20034;-54
2022/09/01 02:13:30;;;;;;;41.42;23.48;;;13.10;99.90;;;;;;5093323;28;20549;-54
2022/09/01 02:16:01;;;;;;;32.47;24.75;;;13.10;99.90;;;;;;5093613;28;20031;-51
2022/09/01 02:18:33;;;;;;;30.63;23.92;;;13.10;99.90;;;;;;5093092;28;20032;-51
2022/09/01 02:20:59;;;;;;;35.40;22.17;;;13.10;99.90;;;;;;5093399;28;20020;-51
2022/09/01 02:23:26;;;;;;;30.30;21.42;;;13.00;99.90;;;;;;5084059;28;20028;-54
2022/09/01 02:25:54;;;;;;;31.88;24.15;;;13.00;99.90;;;;;;5071751;28;20368;-52
2022/09/01 02:28:21;;;;;;;29.45;23.20;;;13.00;99.90;;;;;;5072970;28;20366;-54
2022/09/01 02:30:53;;;;;;;37.15;22.50;;;12.90;99.90;;;;;;5073042;28;20017;-55
2022/09/01 02:33:20;;;;;;;34.17;24.92;;;12.90;99.90;;;;;;5072894;28;20495;-52
2022/09/01 02:35:55;;;;;;;34.75;25.60;;;12.90;99.90;;;;;;5074171;28;20043;-53
2022/09/01 02:38:24;;;;;;;36.63;25.52;;;12.80;99.90;;;;;;5091581;28;20039;-51
2022/09/01 02:40:52;;;;;;;34.40;25.58;;;12.80;99.90;;;;;;5093046;28;20070;-50
2022/09/01 02:43:19;;;;;;;32.30;23.67;;;12.80;99.90;;;;;;5091721;28;20413;-51
2022/09/01 02:45:58;;;;;;;35.53;23.08;;;12.80;99.90;;;;;;5092715;28;20024;-52
2022/09/01 02:48:31;;;;;;;33.90;24.42;;;12.70;99.90;;;;;;5092749;28;20569;-49
2022/09/01 02:51:00;;;;;;;28.77;22.75;;;12.70;99.90;;;;;;5092913;28;20459;-53
2022/09/01 02:53:27;;;;;;;32.65;24.45;;;12.60;99.90;;;;;;5081087;28;20036;-52
2022/09/01 02:55:56;;;;;;;29.92;22.63;;;12.60;99.90;;;;;;5071993;28;20498;-52
2022/09/01 02:58:22;;;;;;;38.10;23.23;;;12.50;99.90;;;;;;5072360;28;20076;-51
2022/09/01 03:00:53;;;;;;;30.35;21.20;;;12.50;99.90;;;;;;5072522;28;20116;-49
2022/09/01 03:03:20;;;;;;;31.23;22.77;;;12.40;99.90;;;;;;5072215;28;20021;-52
2022/09/01 03:05:46;;;;;;;32.03;23.40;;;12.30;99.90;;;;;;5076380;28;20028;-49
2022/09/01 03:08:14;;;;;;;34.78;23.00;;;12.20;99.90;;;;;;5092379;28;20079;-52
2022/09/01 03:10:42;;;;;;;38.67;23.98;;;12.10;99.90;;;;;;5092635;28;20063;-50
2022/09/01 03:13:19;;;;;;;33.72;25.48;;;12.10;99.90;;;;;;5092477;28;20031;-51
2022/09/01 03:15:45;;;;;;;30.88;24.08;;;12.10;99.90;;;;;;5092434;28;20028;-53
2022/09/01 03:18:12;;;;;;;29.80;22.90;;;12.10;99.90;;;;;;5092392;28;20752;-50
2022/09/01 03:20:42;;;;;;;28.35;21.98;;;12.10;99.90;;;;;;5091833;28;20035;-51
2022/09/01 03:23:11;;;;;;;29.10;23.23;;;12.10;99.90;;;;;;5092138;28;20020;-52
2022/09/01 03:25:37;;;;;;;28.02;23.00;;;12.10;99.90;;;;;;5092162;28;20040;-50
2022/09/01 03:28:04;;;;;;;36.85;24.25;;;12.10;99.90;;;;;;5090794;28;20020;-51
2022/09/01 03:30:33;;;;;;;29.60;22.50;;;12.10;99.90;;;;;;5092002;28;20107;-50
2022/09/01 03:33:01;;;;;;;30.92;23.52;;;12.20;99.90;;;;;;5092164;28;20107;-50
2022/09/01 03:35:30;;;;;;;30.80;23.67;;;12.20;99.90;;;;;;5085524;28;20032;-55
2022/09/01 03:37:57;;;;;;;30.33;23.85;;;12.30;99.90;;;;;;5071692;28;20028;-51
2022/09/01 03:40:26;;;;;;;30.95;23.35;;;12.20;99.90;;;;;;5071655;28;20017;-51
2022/09/01 03:42:53;;;;;;;35.85;24.55;;;12.20;99.90;;;;;;5071642;28;20029;-55
2022/09/01 03:45:19;;;;;;;35.38;23.60;;;12.20;99.90;;;;;;5071481;28;20066;-50
2022/09/01 03:47:45;;;;;;;32.13;23.67;;;12.10;99.90;;;;;;5071746;28;20104;-53
2022/09/01 03:50:20;;;;;;;30.98;21.67;;;12.10;99.90;;;;;;5071733;28;20039;-52
2022/09/01 03:52:52;;;;;;;32.63;24.00;;;12.10;99.90;;;;;;5070111;28;20039;-49
2022/09/01 03:55:26;;;;;;;32.80;23.83;;;12.10;99.90;;;;;;5071522;28;20065;-50
2022/09/01 03:57:52;;;;;;;;;;;12.10;99.90;;;;;;5070792;28;20494;-52
2022/09/01 04:00:21;;;;;;;34.58;24.15;;;12.10;99.90;;;;;;5071556;28;19905;-53
2022/09/01 04:02:49;;;;;;;34.63;24.40;;;12.00;99.90;;;;;;5071496;28;20027;-51
2022/09/01 04:05:18;;;;;;;35.35;24.15;;;12.00;99.90;;;;;;5076527;28;20048;-50
2022/09/01 04:07:47;;;;;;;33.58;23.45;;;12.00;99.90;;;;;;5091417;28;20052;-51
2022/09/01 04:10:14;;;;;;;32.03;23.10;;;11.90;99.90;;;;;;5091512;28;20027;-51
2022/09/01 04:12:39;;;;;;;39.28;24.02;;;11.90;99.90;;;;;;5091721;28;20590;-54
2022/09/01 04:15:07;;;;;;;37.00;28.25;;;11.90;99.90;;;;;;5090343;28;20028;-51
2022/09/01 04:20:19;;;;;;;52.22;32.50;;;11.90;99.90;;;;;;5083093;28;20694;-52
2022/09/01 04:22:46;;;;;;;53.60;33.08;;;12.00;99.90;;;;;;5071237;28;20032;-50
2022/09/01 04:25:13;;;;;;;60.20;36.70;;;12.00;99.90;;;;;;5071376;28;20411;-51
2022/09/01 04:27:39;;;;;;;52.80;34.60;;;12.10;99.90;;;;;;5071199;28;20025;-54
2022/09/01 04:30:09;;;;;;;58.10;35.83;;;12.10;99.90;;;;;;5071342;28;20407;-51
2022/09/01 04:32:36;;;;;;;53.58;33.88;;;12.10;99.90;;;;;;5071133;28;20043;-52
2022/09/01 04:35:03;;;;;;;57.53;35.53;;;12.10;99.90;;;;;;5074421;28;20689;-50
2022/09/01 04:37:29;;;;;;;56.33;33.85;;;12.10;99.90;;;;;;5091293;28;20056;-50
2022/09/01 04:39:56;;;;;;;47.55;33.03;;;12.10;99.90;;;;;;5091450;28;20540;-52
2022/09/01 04:42:23;;;;;;;49.10;29.90;;;12.10;99.90;;;;;;5091028;28;20052;-53
2022/09/01 04:44:53;;;;;;;42.35;28.27;;;12.10;99.90;;;;;;5091354;28;20016;-53
2022/09/01 04:47:28;;;;;;;43.85;29.35;;;12.00;99.90;;;;;;5091266;28;20017;-54
2022/09/01 04:49:57;;;;;;;37.97;25.90;;;12.00;99.90;;;;;;5090813;28;20028;-50
2022/09/01 04:52:24;;;;;;;40.63;27.13;;;12.10;99.90;;;;;;5091137;28;20024;-48
2022/09/01 04:54:49;;;;;;;65.43;35.45;;;12.10;99.90;;;;;;5091341;28;20031;-55
2022/09/01 04:57:15;;;;;;;90.75;45.10;;;12.30;99.90;;;;;;5090467;28;20375;-52
2022/09/01 04:59:42;;;;;;;96.60;48.22;;;12.40;99.90;;;;;;5090808;28;20439;-52
2022/09/01 05:02:08;;;;;;;106.65;54.83;;;12.60;99.90;;;;;;5091011;28;20059;-55
2022/09/01 05:04:35;;;;;;;91.80;45.63;;;12.60;99.90;;;;;;5085565;28;20365;-52
2022/09/01 05:07:03;;;;;;;208.35;55.80;;;12.70;99.90;;;;;;5070535;28;20541;-52
2022/09/01 05:09:34;;;;;;;120.50;46.55;;;12.80;99.90;;;;;;5070747;28;20117;-54
2022/09/01 05:12:09;;;;;;;122.97;45.53;;;12.80;99.90;;;;;;5070706;28;20044;-51
2022/09/01 05:14:41;;;;;;;104.32;45.38;;;12.80;99.90;;;;;;5070635;28;20031;-52
2022/09/01 05:17:09;;;;;;;119.55;46.78;;;12.90;99.90;;;;;;5070920;28;20063;-51
2022/09/01 05:19:42;;;;;;;111.15;47.85;;;12.90;99.90;;;;;;5074179;28;20529;-51
2022/09/01 05:22:09;;;;;;;135.63;47.50;;;13.00;99.90;;;;;;5072969;28;20119;-51
2022/09/01 05:24:36;;;;;;;122.97;46.50;;;13.10;99.90;;;;;;5073978;28;20052;-50
2022/09/01 05:27:04;;;;;;;120.15;44.22;;;13.20;99.90;;;;;;5074109;28;20103;-51
2022/09/01 05:29:30;;;;;;;85.70;41.15;;;13.30;99.90;;;;;;5072806;28;20418;-51
2022/09/01 05:31:57;;;;;;;78.43;40.28;;;13.30;99.90;;;;;;5074200;28;20510;-52
2022/09/01 05:34:28;;;;;;;76.63;40.00;;;13.40;99.90;;;;;;5076010;28;20516;-50
2022/09/01 05:36:58;;;;;;;66.30;36.30;;;13.40;99.90;;;;;;5094028;28;20114;-55
2022/09/01 05:39:25;;;;;;;60.13;34.00;;;13.50;99.90;;;;;;5094163;28;20020;-51
2022/09/01 05:41:52;;;;;;;57.55;31.58;;;13.50;99.90;;;;;;5094171;28;20107;-51
2022/09/01 05:44:21;;;;;;;50.20;28.90;;;13.50;99.90;;;;;;5093990;28;20023;-51
2022/09/01 05:46:48;;;;;;;55.10;30.88;;;13.50;99.90;;;;;;5094145;28;20114;-51
2022/09/01 05:49:14;;;;;;;61.03;32.20;;;13.50;99.90;;;;;;5093846;28;20047;-52
2022/09/01 05:51:50;;;;;;;51.88;31.38;;;13.60;99.90;;;;;;5093391;28;20043;-52
2022/09/01 05:54:20;;;;;;;58.03;30.15;;;13.60;99.90;;;;;;5093616;28;20363;-51
2022/09/01 05:56:46;;;;;;;49.45;29.30;;;13.80;99.90;;;;;;5093936;28;20472;-53
2022/09/01 05:59:13;;;;;;;45.58;26.63;;;13.90;99.90;;;;;;5093928;28;20066;-50
2022/09/01 06:01:40;;;;;;;37.92;26.48;;;13.90;99.90;;;;;;5093955;28;20016;-54
2022/09/01 06:04:08;;;;;;;46.15;27.45;;;14.00;99.90;;;;;;5093735;28;20031;-54
2022/09/01 06:06:48;;;;;;;40.13;25.63;;;14.10;99.90;;;;;;5093217;28;20036;-52
2022/09/01 06:09:17;;;;;;;45.60;26.65;;;14.10;99.90;;;;;;5093553;28;20056;-50
2022/09/01 06:11:45;;;;;;;36.25;22.80;;;14.20;99.90;;;;;;5093555;28;20024;-51
2022/09/01 06:14:14;;;;;;;35.72;21.08;;;14.30;99.90;;;;;;5093647;28;20020;-52
2022/09/01 06:16:41;;;;;;;32.78;21.98;;;14.50;99.90;;;;;;5093635;28;20089;-52
2022/09/01 06:19:06;;;;;;;28.75;20.77;;;14.60;99.90;;;;;;5091718;28;20024;-51
2022/09/01 06:21:33;;;;;;;28.35;19.10;;;14.80;99.90;;;;;;5093340;28;20024;-54
2022/09/01 06:23:59;;;;;;;28.60;18.58;;;14.90;99.90;;;;;;5093206;28;20016;-54
2022/09/01 06:26:28;;;;;;;28.95;18.98;;;14.80;99.90;;;;;;5093037;28;20415;-52
2022/09/01 06:29:00;;;;;;;29.40;20.30;;;15.10;99.90;;;;;;5092655;28;20031;-54
2022/09/01 06:31:32;;;;;;;28.27;18.92;;;15.10;99.90;;;;;;5083826;28;20489;-54
2022/09/01 06:34:02;;;;;;;28.25;19.17;;;15.00;99.90;;;;;;5091940;28;20471;-54
2022/09/01 06:36:31;;;;;;;29.85;19.70;;;15.10;99.90;;;;;;5078760;28;20103;-51
2022/09/01 06:38:59;;;;;;;33.15;21.52;;;15.10;99.90;;;;;;5072703;28;20098;-51
2022/09/01 06:41:25;;;;;;;26.38;20.42;;;15.00;99.90;;;;;;5072786;28;20020;-54
2022/09/01 06:43:52;;;;;;;28.88;20.92;;;14.90;99.90;;;;;;5072781;28;20055;-51
2022/09/01 06:46:21;;;;;;;27.67;19.30;;;14.90;99.90;;;;;;5072462;28;20024;-55
2022/09/01 06:48:47;;;;;;;26.70;19.88;;;15.00;99.90;;;;;;5072528;28;20563;-53
2022/09/01 06:51:19;;;;;;;26.25;16.67;;;15.20;99.90;;;;;;5072527;28;20052;-54
2022/09/01 06:53:55;;;;;;;26.67;19.60;;;15.20;99.90;;;;;;5089611;28;20069;-54
2022/09/01 06:56:23;;;;;;;23.13;16.17;;;15.30;99.90;;;;;;5091440;28;20036;-53
2022/09/01 06:58:52;;;;;;;24.38;17.85;;;15.60;99.90;;;;;;5092531;28;20059;-54
2022/09/01 07:01:20;;;;;;;25.55;18.35;;;15.60;99.90;;;;;;5091008;28;20039;-57
2022/09/01 07:03:49;;;;;;;21.67;17.50;;;15.70;99.90;;;;;;5092244;28;20067;-53
2022/09/01 07:06:17;;;;;;;21.38;16.15;;;15.90;99.90;;;;;;5092329;28;20020;-51
2022/09/01 07:08:48;;;;;;;23.00;14.75;;;16.00;99.90;;;;;;5092323;28;20044;-51
2022/09/01 07:11:26;;;;;;;21.25;15.13;;;16.30;99.90;;;;;;5092185;28;20058;-54
2022/09/01 07:13:56;;;;;;;15.77;14.02;;;16.50;99.90;;;;;;5092311;28;20488;-52
2022/09/01 07:16:23;;;;;;;16.98;13.68;;;16.50;99.90;;;;;;5077489;28;20020;-53
2022/09/01 07:18:50;;;;;;;14.75;12.43;;;16.50;99.90;;;;;;5071808;28;20426;-53
2022/09/01 07:21:18;;;;;;;14.63;11.93;;;16.50;99.90;;;;;;5071676;28;20547;-53
2022/09/01 07:23:44;;;;;;;17.70;13.38;;;16.70;99.90;;;;;;5071851;28;20029;-52
2022/09/01 07:26:16;;;;;;;20.65;11.88;;;16.40;99.90;;;;;;5072042;28;20028;-50
2022/09/01 07:28:43;;;;;;;14.38;11.95;;;16.50;99.90;;;;;;5071461;28;20020;-52
2022/09/01 07:31:19;;;;;;;14.75;13.23;;;16.50;99.90;;;;;;5071812;28;20033;-53
2022/09/01 07:33:49;;;;;;;16.98;13.27;;;16.50;99.90;;;;;;5071803;28;20027;-50
2022/09/01 07:36:16;;;;;;;18.88;11.95;;;16.60;99.90;;;;;;5085700;28;20024;-52
2022/09/01 07:38:42;;;;;;;17.10;13.63;;;16.80;99.90;;;;;;5091251;28;20111;-52
2022/09/01 07:41:11;;;;;;;16.30;13.30;;;16.80;99.90;;;;;;5090160;28;20115;-53
2022/09/01 07:43:40;;;;;;;20.75;12.50;;;16.80;99.90;;;;;;5091704;28;20331;-53
2022/09/01 07:46:06;;;;;;;19.85;13.30;;;16.60;99.90;;;;;;5090844;28;20048;-54
2022/09/01 07:48:32;;;;;;;22.13;12.25;;;16.60;99.90;;;;;;5091195;28;20027;-53
2022/09/01 07:50:59;;;;;;;15.18;11.80;;;16.60;99.90;;;;;;5090571;28;20024;-54
2022/09/01 07:53:30;;;;;;;15.93;11.60;;;16.70;99.90;;;;;;5090701;28;20032;-55
2022/09/01 07:55:57;;;;;;;14.90;11.38;;;16.70;99.90;;;;;;5090521;28;20031;-53
2022/09/01 07:58:26;;;;;;;14.00;11.63;;;16.90;99.90;;;;;;5088994;28;20055;-52
2022/09/01 08:00:54;;;;;;;13.85;10.07;;;16.90;99.90;;;;;;5090250;28;20020;-52
2022/09/01 08:03:23;;;;;;;15.43;10.30;;;17.10;99.90;;;;;;5090509;28;20032;-52
2022/09/01 08:05:56;;;;;;;12.65;10.20;;;17.30;99.90;;;;;;5066607;28;20035;-53
2022/09/01 08:08:22;;;;;;;10.40;9.30;;;17.20;99.90;;;;;;5062223;28;20055;-51
2022/09/01 08:10:48;;;;;;;9.98;8.93;;;17.50;99.90;;;;;;5060069;28;20032;-54
2022/09/01 08:13:14;;;;;;;17.70;13.23;;;17.50;99.90;;;;;;5061598;28;20032;-51
2022/09/01 08:15:41;;;;;;;12.55;11.25;;;17.60;99.90;;;;;;5071341;28;20467;-53
2022/09/01 08:18:07;;;;;;;11.25;9.23;;;17.60;99.90;;;;;;5052460;28;20051;-51
2022/09/01 08:20:36;;;;;;;15.90;10.30;;;17.60;99.90;;;;;;5071092;28;20028;-55
2022/09/01 08:23:03;;;;;;;18.13;11.07;;;17.80;99.90;;;;;;5070096;28;20036;-52
2022/09/01 08:25:29;;;;;;;17.60;9.30;;;18.00;99.90;;;;;;5069121;28;20511;-52
2022/09/01 08:27:55;;;;;;;12.93;10.25;;;18.00;99.90;;;;;;5070167;28;20096;-51
2022/09/01 08:30:22;;;;;;;16.17;9.65;;;17.90;99.90;;;;;;5076240;28;20089;-51
2022/09/01 08:32:48;;;;;;;9.27;8.35;;;17.80;99.90;;;;;;5090161;28;20145;-55
2022/09/01 08:35:15;;;;;;;11.05;8.98;;;17.70;99.90;;;;;;5090662;28;20030;-52
2022/09/01 08:37:41;;;;;;;12.25;8.00;;;17.70;99.90;;;;;;5090905;28;20488;-51
2022/09/01 08:40:11;;;;;;;14.00;9.10;;;17.80;99.90;;;;;;5090974;28;20103;-55
2022/09/01 08:42:58;;;;;;;11.95;8.15;;;17.90;99.90;;;;;;5076922;28;20062;-52
2022/09/01 08:45:36;;;;;;;8.98;7.97;;;18.00;99.90;;;;;;5069159;28;20079;-51
2022/09/01 08:48:15;;;;;;;19.90;7.85;;;17.80;99.90;;;;;;5059211;28;20063;-51
2022/09/01 08:50:43;;;;;;;12.63;7.85;;;18.10;99.90;;;;;;5059913;28;20041;-51
2022/09/01 08:53:32;;;;;;;11.18;7.25;;;18.40;99.90;;;;;;5061622;28;20033;-51
2022/09/01 08:55:59;;;;;;;10.40;6.13;;;18.80;99.90;;;;;;5053363;28;20060;-53
2022/09/01 08:58:29;;;;;;;6.85;5.95;;;18.90;99.90;;;;;;5063591;28;20036;-55
2022/09/01 09:01:02;;;;;;;17.00;6.03;;;19.10;99.90;;;;;;5063822;28;20460;-55
2022/09/01 09:03:52;;;;;;;8.63;5.70;;;19.40;99.90;;;;;;5063604;28;20413;-54
2022/09/01 09:06:52;;;;;;;9.13;5.35;;;19.50;99.90;;;;;;5074276;28;20068;-54
2022/09/01 09:09:18;;;;;;;8.00;5.38;;;19.40;99.90;;;;;;5081729;28;20097;-54
2022/09/01 09:12:01;;;;;;;7.72;4.95;;;19.30;99.90;;;;;;5082533;28;20081;-55
2022/09/01 09:14:42;;;;;;;8.55;4.43;;;19.40;99.90;;;;;;5074783;28;20036;-51
2022/09/01 09:17:08;;;;;;;4.50;4.07;;;19.40;99.90;;;;;;5083633;28;20678;-52
2022/09/01 09:19:38;;;;;;;6.53;4.90;;;19.60;99.90;;;;;;5081128;28;20519;-56
2022/09/01 09:22:09;;;;;;;12.00;4.50;;;19.60;99.90;;;;;;5063098;28;20074;-51
2022/09/01 09:24:59;;;;;;;7.00;4.53;;;19.20;99.90;;;;;;5063356;28;20790;-54
2022/09/01 09:27:28;;;;;;;13.88;3.38;;;19.10;99.90;;;;;;5063227;28;20082;-51
2022/09/01 09:30:01;;;;;;;6.63;5.15;;;19.30;99.90;;;;;;5049031;28;21115;-55
2022/09/01 09:32:50;;;;;;;3.75;3.20;;;19.50;99.90;;;;;;5083220;28;20481;-54
2022/09/01 09:35:23;;;;;;;6.40;4.15;;;19.60;99.90;;;;;;5082312;28;20060;-54
2022/09/01 09:37:49;;;;;;;8.57;3.28;;;19.70;99.90;;;;;;5062882;28;20064;-54
2022/09/01 09:40:22;;;;;;;4.63;3.10;;;19.60;99.90;;;;;;5065270;28;20052;-52
2022/09/01 09:42:54;;;;;;;7.45;2.85;;;19.80;99.90;;;;;;5076376;28;20762;-53
2022/09/01 09:45:36;;;;;;;8.75;3.33;;;19.50;99.90;;;;;;5082844;28;20028;-54
2022/09/01 09:48:25;;;;;;;8.02;3.58;;;19.50;99.90;;;;;;5072397;28;20033;-53
2022/09/01 09:50:51;;;;;;;6.68;3.75;;;19.70;99.90;;;;;;5063187;28;20108;-52
2022/09/01 09:53:33;;;;;;;4.90;3.78;;;20.10;99.90;;;;;;5062998;28;20107;-52
2022/09/01 09:56:19;;;;;;;6.40;3.22;;;20.20;99.90;;;;;;5063111;28;20017;-54
2022/09/01 09:58:47;;;;;;;6.78;4.35;;;20.20;99.90;;;;;;5062576;28;20063;-52
2022/09/01 10:01:22;;;;;;;6.20;3.92;;;20.20;99.90;;;;;;5062390;28;20025;-53
2022/09/01 10:03:51;;;;;;;7.95;3.78;;;20.40;99.80;;;;;;5062242;28;20367;-54
2022/09/01 10:06:46;;;;;;;4.25;3.78;;;20.00;99.90;;;;;;5061527;28;20056;-53
2022/09/01 10:09:34;;;;;;;5.65;3.35;;;20.50;99.90;;;;;;5062295;28;20719;-51
2022/09/01 10:12:01;;;;;;;5.15;3.58;;;20.90;99.00;;;;;;5062940;28;20048;-55
2022/09/01 10:14:49;;;;;;;13.45;3.42;;;21.00;98.90;;;;;;5061854;28;20036;-53
2022/09/01 10:17:19;;;;;;;7.22;3.42;;;20.90;97.30;;;;;;5062633;28;20113;-52
2022/09/01 10:20:04;;;;;;;3.95;3.33;;;21.30;97.50;;;;;;5062072;28;20426;-54
2022/09/01 10:22:31;;;;;;;4.68;3.10;;;21.60;98.80;;;;;;5062517;28;21592;-51
2022/09/01 10:24:59;;;;;;;9.15;3.58;;;21.90;96.80;;;;;;5062382;28;20024;-51
2022/09/01 10:27:29;;;;;;;6.13;3.80;;;21.40;96.40;;;;;;5069629;28;20119;-55
2022/09/01 10:30:05;;;;;;;5.03;3.15;;;21.00;96.40;;;;;;5081791;28;20035;-52
2022/09/01 10:32:40;;;;;;;5.03;4.00;;;20.70;96.90;;;;;;5082262;28;20089;-51
2022/09/01 10:35:11;;;;;;;6.68;3.83;;;20.60;97.40;;;;;;5082232;28;20047;-54
2022/09/01 10:37:37;;;;;;;4.50;3.42;;;20.80;98.20;;;;;;5062929;28;20434;-54
2022/09/01 10:40:13;;;;;;;7.10;2.80;;;21.10;97.10;;;;;;5071015;28;20344;-54
2022/09/01 10:42:42;;;;;;;3.33;2.55;;;21.10;96.20;;;;;;5062818;28;20029;-55
2022/09/01 10:45:38;;;;;;;7.32;2.78;;;21.80;95.70;;;;;;5062970;28;20376;-53
2022/09/01 10:48:19;;;;;;;7.38;2.50;;;22.10;96.10;;;;;;5056238;28;20048;-55
2022/09/01 10:50:54;;;;;;;4.68;1.98;;;22.40;95.70;;;;;;5061507;28;20574;-53
2022/09/01 10:53:35;;;;;;;4.25;1.80;;;22.20;92.60;;;;;;5061131;28;20040;-54
2022/09/01 10:56:22;;;;;;;3.00;2.05;;;22.00;92.30;;;;;;5062221;28;20072;-51
2022/09/01 10:58:48;;;;;;;3.38;2.47;;;22.00;92.30;;;;;;5080794;28;20032;-51
2022/09/01 11:01:14;;;;;;;7.38;1.95;;;22.60;93.90;;;;;;5061463;28;20040;-51
2022/09/01 11:03:52;;;;;;;3.05;1.80;;;22.80;91.00;;;;;;5060387;28;20772;-51
2022/09/01 11:06:52;;;;;;;4.32;1.80;;;22.90;91.40;;;;;;5060409;28;20040;-53
2022/09/01 11:09:30;;;;;;;2.70;1.45;;;22.80;90.30;;;;;;5060864;28;20045;-54
2022/09/01 11:11:56;;;;;;;5.40;2.20;;;22.80;86.70;;;;;;5061508;28;20029;-54
2022/09/01 11:14:25;;;;;;;5.25;2.65;;;22.80;87.20;;;;;;5067549;28;20030;-55
2022/09/01 11:17:11;;;;;;;4.90;2.25;;;23.10;89.60;;;;;;5078207;28;20161;-56
2022/09/01 11:19:39;;;;;;;8.55;1.92;;;23.80;87.40;;;;;;5060973;28;20170;-55
2022/09/01 11:22:14;;;;;;;2.70;1.42;;;24.30;82.70;;;;;;5061316;28;20126;-55
2022/09/01 11:24:43;;;;;;;2.25;1.52;;;24.70;78.10;;;;;;5066281;28;20020;-53
2022/09/01 11:27:11;;;;;;;6.25;1.45;;;25.50;79.70;;;;;;5071352;28;20039;-55
2022/09/01 11:29:51;;;;;;;4.13;1.75;;;25.90;73.70;;;;;;5083343;28;20424;-53
2022/09/01 11:32:18;;;;;;;3.08;1.63;;;26.50;72.90;;;;;;5091733;28;20084;-55
2022/09/01 11:34:47;;;;;;;2.60;1.20;;;26.90;73.20;;;;;;5091612;28;20024;-52
2022/09/01 11:37:15;;;;;;;6.53;1.00;;;27.60;69.60;;;;;;5073460;28;20479;-52
2022/09/01 11:39:51;;;;;;;3.65;1.20;;;27.50;66.90;;;;;;5091766;28;20036;-54
2022/09/01 11:42:52;;;;;;;4.45;1.48;;;27.90;64.90;;;;;;5090816;28;20028;-52
2022/09/01 11:45:32;;;;;;;3.35;1.25;;;27.50;62.90;;;;;;5016387;28;20032;-55
2022/09/01 11:48:02;;;;;;;2.67;1.10;;;27.40;63.10;;;;;;5050264;28;20021;-54
2022/09/01 11:50:31;;;;;;;4.03;1.00;;;27.70;62.80;;;;;;5050936;28;20032;-53
2022/09/01 11:53:02;;;;;;;3.55;1.50;;;28.90;63.40;;;;;;5051225;28;20092;-51
2022/09/01 11:55:30;;;;;;;3.17;1.33;;;28.00;61.40;;;;;;5051064;28;20029;-53
2022/09/01 11:57:56;;;;;;;6.28;1.40;;;28.70;60.90;;;;;;5055528;28;20043;-55
2022/09/01 12:00:29;;;;;;;2.70;1.38;;;28.90;61.60;;;;;;5091192;28;20024;-52
2022/09/01 12:02:55;;;;;;;;;;;29.40;59.60;;;;;;5091043;28;20129;-53
2022/09/01 12:05:33;;;;;;;4.72;1.23;;;30.70;57.60;;;;;;5081940;28;19904;-52
2022/09/01 12:08:12;;;;;;;3.70;1.65;;;30.30;57.40;;;;;;5069547;28;20083;-53
2022/09/01 12:10:39;;;;;;;2.05;1.30;;;30.50;57.50;;;;;;5069059;28;20029;-54
2022/09/01 12:13:22;;;;;;;6.97;1.40;;;29.90;54.70;;;;;;5069730;28;20046;-51
2022/09/01 12:15:54;;;;;;;2.42;1.02;;;29.60;55.60;;;;;;5069845;28;20017;-52
2022/09/01 12:18:26;;;;;;;3.13;1.33;;;29.80;56.70;;;;;;5069473;28;20035;-53
2022/09/01 12:20:55;;;;;;;6.35;1.52;;;29.60;55.60;;;;;;5070095;28;20723;-54
2022/09/01 12:23:36;;;;;;;2.85;1.55;;;29.90;58.90;;;;;;5069370;28;20059;-56
2022/09/01 12:26:09;;;;;;;4.00;1.52;;;29.90;57.10;;;;;;5068200;28;20028;-52
2022/09/01 12:28:40;;;;;;;1.38;1.05;;;30.20;57.00;;;;;;5072288;28;20028;-54
2022/09/01 12:31:11;;;;;;;3.75;1.35;;;31.00;55.80;;;;;;5072391;28;20025;-53
2022/09/01 12:33:37;;;;;;;2.58;1.50;;;31.10;54.50;;;;;;5071776;28;20131;-51
2022/09/01 12:36:24;;;;;;;3.30;1.00;;;30.70;54.30;;;;;;5090122;28;20126;-54
2022/09/01 12:38:52;;;;;;;5.72;1.48;;;31.20;54.50;;;;;;5084472;28;20028;-54
2022/09/01 12:41:25;;;;;;;1.75;1.02;;;30.30;54.20;;;;;;5073841;28;20051;-52
2022/09/01 12:43:51;;;;;;;1.75;1.30;;;29.60;55.60;;;;;;5073583;28;20554;-50
2022/09/01 12:46:41;;;;;;;2.13;1.05;;;30.00;53.70;;;;;;5073672;28;20055;-52
2022/09/01 12:49:18;;;;;;;10.25;1.40;;;30.00;55.80;;;;;;5079439;28;20024;-51
2022/09/01 12:51:46;;;;;;;2.85;1.40;;;29.50;53.50;;;;;;5089752;28;20036;-54
2022/09/01 12:54:12;;;;;;;1.27;0.95;;;29.30;53.50;;;;;;5093736;28;20105;-54
2022/09/01 12:56:38;;;;;;;3.70;1.60;;;29.70;54.60;;;;;;5093596;28;20526;-52